Metar z połowy godziny Komunikat METAR ze strony awiacja.imgw.pl Metar Mil EPMM METAR EPMM 261130Z 30017KT 9999 OVC016 00/M03 Q1003 RMK 003 081 8/8=